Time;durP1;ratioP1;P1;durP2;ratioP2;P2;SDS_P1;SDS_P2;PMS_P1;PMS_P2;Temp;Humidity;BMP_temperature;BMP_pressure;BME280_temperature;BME280_humidity;BME280_pressure;Samples;Min_cycle;Max_cycle;Signal;HPM_P1;HPM_P2
2023/08/01 00:00:25;;;;;;;11.97;2.90;;;;;;;13.88;100.00;100298.56;4973723;28;20518;-82
2023/08/01 00:02:51;;;;;;;6.57;2.93;;;;;;;13.58;100.00;100221.34;4971462;28;20864;-85
2023/08/01 00:05:16;;;;;;;9.77;2.67;;;;;;;14.68;100.00;100444.50;4973987;28;20647;-82
2023/08/01 00:07:41;;;;;;;9.43;2.80;;;;;;;14.92;100.00;100471.50;4970319;28;20202;-84
2023/08/01 00:10:07;;;;;;;6.30;2.50;;;;;;;13.97;100.00;100307.94;4967344;28;20221;-83
2023/08/01 00:12:33;;;;;;;10.47;4.10;;;;;;;13.88;100.00;100271.59;4970490;28;20202;-79
2023/08/01 00:14:58;;;;;;;8.50;2.73;;;;;;;14.72;100.00;100414.34;4971137;28;20238;-84
2023/08/01 00:17:24;;;;;;;8.50;3.60;;;;;;;16.26;100.00;100633.53;4975964;28;20277;-83
2023/08/01 00:19:49;;;;;;;11.07;3.20;;;;;;;14.53;100.00;100368.59;4973128;28;20546;-83
2023/08/01 00:22:15;;;;;;;8.00;2.83;;;;;;;13.59;100.00;100182.53;4972495;28;20204;-84
2023/08/01 00:24:40;;;;;;;8.33;3.37;;;;;;;14.21;100.00;100319.56;4972978;28;20186;-82
2023/08/01 00:27:09;;;;;;;8.30;2.90;;;;;;;14.38;100.00;100349.34;4971015;28;20194;-82
2023/08/01 00:29:34;;;;;;;12.00;3.70;;;;;;;14.44;100.00;100387.00;4972199;28;20257;-85
2023/08/01 00:31:59;;;;;;;6.17;3.17;;;;;;;13.65;100.00;100181.59;4980139;28;20450;-82
2023/08/01 00:34:28;;;;;;;7.83;3.50;;;;;;;15.61;100.00;100506.72;4973142;28;20755;-84
2023/08/01 00:36:53;;;;;;;8.80;3.93;;;;;;;16.24;100.00;100600.47;4970660;28;20190;-85
2023/08/01 00:39:19;;;;;;;11.90;4.20;;;;;;;14.27;100.00;100315.13;4966817;28;20476;-82
2023/08/01 00:41:44;;;;;;;10.67;4.40;;;;;;;14.52;100.00;100375.03;4971824;28;20198;-83
2023/08/01 00:44:10;;;;;;;9.40;3.63;;;;;;;13.39;100.00;100126.31;4971609;28;20192;-83
2023/08/01 00:46:36;;;;;;;9.60;4.17;;;;;;;16.32;100.00;100610.09;4970650;28;20194;-84
2023/08/01 00:49:02;;;;;;;11.73;4.13;;;;;;;15.00;100.00;100444.13;4974980;28;21142;-85
2023/08/01 00:51:31;;;;;;;10.03;3.73;;;;;;;13.39;100.00;100126.31;4978436;28;20842;-85
2023/08/01 00:53:57;;;;;;;11.50;3.67;;;;;;;13.74;100.00;100196.38;4977106;28;20568;-82
2023/08/01 00:56:23;;;;;;;8.83;4.13;;;;;;;15.23;100.00;100423.53;4972623;28;20488;-84
2023/08/01 00:58:49;;;;;;;11.50;3.50;;;;;;;14.74;100.00;100379.84;4974280;28;20465;-83
2023/08/01 01:01:14;;;;;;;13.83;3.80;;;;;;;14.44;100.00;100326.81;4970899;28;20456;-86
2023/08/01 01:03:40;;;;;;;7.20;3.60;;;;;;;16.03;100.00;100620.09;4972236;28;20237;-83
2023/08/01 01:06:17;;;;;;;7.27;3.50;;;;;;;16.17;100.00;100570.03;4969777;28;21849;-84
2023/08/01 01:08:43;;;;;;;7.53;2.93;;;;;;;13.59;100.00;100205.97;4971752;28;20722;-81
2023/08/01 01:11:09;;;;;;;8.10;3.60;;;;;;;14.38;100.00;100336.69;4970646;28;20449;-85
2023/08/01 01:13:34;;;;;;;10.93;3.70;;;;;;;14.73;100.00;100389.00;4978523;28;20683;-84
2023/08/01 01:16:00;;;;;;;9.00;3.40;;;;;;;16.11;100.00;100570.16;4972987;28;20198;-80
2023/08/01 01:18:25;;;;;;;7.40;3.13;;;;;;;16.14;100.00;100562.41;4972670;28;20334;-82
2023/08/01 01:20:51;;;;;;;8.50;4.00;;;;;;;13.92;100.00;100226.97;4980396;28;20863;-83
2023/08/01 01:23:17;;;;;;;12.33;4.17;;;;;;;13.40;100.00;100113.69;4971597;28;20228;-83
2023/08/01 01:25:45;;;;;;;8.87;3.00;;;;;;;15.59;100.00;100468.28;4974275;28;20869;-81
2023/08/01 01:28:12;;;;;;;5.30;2.77;;;;;;;13.91;100.00;100166.00;4966013;28;20445;-81
2023/08/01 01:30:38;;;;;;;9.67;3.20;;;;;;;13.64;100.00;100187.25;4968988;28;20566;-81
2023/08/01 01:33:04;;;;;;;8.03;3.30;;;;;;;14.61;100.00;100324.22;4970654;28;20447;-82
2023/08/01 01:35:32;;;;;;;6.40;3.50;;;;;;;14.39;100.00;100283.53;4969120;28;20520;-84
2023/08/01 01:37:58;;;;;;;10.40;3.57;;;;;;;14.89;100.00;100362.06;4975090;28;20449;-83
2023/08/01 01:40:24;;;;;;;6.57;2.90;;;;;;;14.69;100.00;100313.06;4973443;28;20468;-82
2023/08/01 01:42:49;;;;;;;8.07;2.60;;;;;;;14.98;100.00;100337.41;4969029;28;20814;-78
2023/08/01 01:45:15;;;;;;;6.93;3.60;;;;;;;14.71;100.00;100300.16;4971139;28;20190;-84
2023/08/01 01:47:40;;;;;;;7.20;3.23;;;;;;;14.96;100.00;100344.94;4968031;28;20188;-80
2023/08/01 01:50:06;;;;;;;6.00;2.70;;;;;;;13.66;100.00;100055.78;4968348;28;20304;-83
2023/08/01 01:52:32;;;;;;;9.40;3.07;;;;;;;15.64;100.00;100411.59;4969957;28;20647;-83
2023/08/01 01:54:58;;;;;;;5.67;3.03;;;;;;;13.53;100.00;100059.56;4969274;28;20564;-81
2023/08/01 01:57:24;;;;;;;4.63;2.77;;;;;;;15.42;100.00;100389.03;4969115;28;20538;-82
2023/08/01 01:59:49;;;;;;;4.87;2.60;;;;;;;13.31;100.00;99987.47;4966638;28;20280;-82
2023/08/01 02:02:14;;;;;;;6.97;2.80;;;;;;;14.76;100.00;100221.16;4967391;28;20213;-83
2023/08/01 02:04:40;;;;;;;5.80;2.50;;;;;;;14.14;100.00;100136.28;4968089;28;20273;-83
2023/08/01 02:07:05;;;;;;;8.30;3.63;;;;;;;14.52;100.00;100250.09;4972344;28;21205;-84
2023/08/01 02:09:31;;;;;;;7.57;3.07;;;;;;;14.31;100.00;100214.56;4976224;28;20220;-83
2023/08/01 02:11:56;;;;;;;5.83;2.70;;;;;;;14.68;100.00;100271.75;4967324;28;20205;-83
2023/08/01 02:14:22;;;;;;;6.87;2.97;;;;;;;13.37;100.00;100017.19;4968061;28;20213;-80
2023/08/01 02:16:47;;;;;;;6.90;2.53;;;;;;;13.38;100.00;99978.44;4968936;28;20240;-82
2023/08/01 02:19:13;;;;;;;6.10;3.30;;;;;;;14.17;100.00;100199.72;4967586;28;20703;-83
2023/08/01 02:21:38;;;;;;;7.70;3.67;;;;;;;14.15;100.00;100180.28;4967815;28;20685;-80
2023/08/01 02:24:04;;;;;;;6.03;3.00;;;;;;;13.40;100.00;100075.97;4968528;28;20661;-82
2023/08/01 02:26:29;;;;;;;4.67;2.60;;;;;;;13.47;100.00;100050.53;4969859;28;20281;-83
2023/08/01 02:28:54;;;;;;;6.93;3.30;;;;;;;14.44;100.00;100164.94;4969719;28;20268;-80
2023/08/01 02:31:20;;;;;;;8.70;3.47;;;;;;;13.45;100.00;100012.25;4966257;28;20248;-83
2023/08/01 02:33:45;;;;;;;7.23;2.70;;;;;;;13.23;100.00;100012.03;4970774;28;20259;-83
2023/08/01 02:36:11;;;;;;;6.57;3.40;;;;;;;13.49;100.00;100056.53;4968964;28;20659;-79
2023/08/01 02:38:36;;;;;;;7.30;3.30;;;;;;;13.25;100.00;99941.75;4969729;28;20630;-84
2023/08/01 02:41:02;;;;;;;8.10;3.07;;;;;;;14.25;100.00;100143.50;4967758;28;20604;-83
2023/08/01 02:43:27;;;;;;;6.27;3.03;;;;;;;15.59;100.00;100306.09;4969176;28;20182;-81
2023/08/01 02:45:53;;;;;;;6.87;2.63;;;;;;;15.12;100.00;100203.69;4965264;28;20272;-80
2023/08/01 02:48:18;;;;;;;7.00;2.87;;;;;;;13.60;100.00;100030.63;4968855;28;20196;-81
2023/08/01 02:50:45;;;;;;;7.60;3.43;;;;;;;14.29;100.00;100164.63;4969632;28;20209;-84
2023/08/01 02:53:10;;;;;;;6.50;3.10;;;;;;;13.51;100.00;99986.22;4970891;28;20333;-81
2023/08/01 02:55:36;;;;;;;5.23;2.40;;;;;;;14.74;100.00;100242.97;4973748;28;20560;-82
2023/08/01 02:58:01;;;;;;;6.70;2.40;;;;;;;14.58;100.00;100133.94;4972552;28;20217;-81
2023/08/01 03:00:26;;;;;;;5.20;2.83;;;;;;;14.18;100.00;100109.66;4969623;28;20296;-81
2023/08/01 03:02:52;;;;;;;7.23;2.63;;;;;;;15.18;100.00;100255.94;4980759;28;20201;-81
2023/08/01 03:05:17;;;;;;;15.30;2.17;;;;;;;13.19;100.00;99940.88;4971231;28;21148;-81
2023/08/01 03:07:43;;;;;;;7.90;3.07;;;;;;;13.82;100.00;100100.03;4970845;28;20249;-84
2023/08/01 03:10:11;;;;;;;7.37;2.93;;;;;;;13.44;100.00;100040.25;4971558;28;20214;-82
2023/08/01 03:12:37;;;;;;;6.97;3.70;;;;;;;13.87;100.00;100141.41;4969572;28;20178;-82
2023/08/01 03:15:03;;;;;;;5.57;3.00;;;;;;;13.74;100.00;100074.25;4986194;28;20483;-83
2023/08/01 03:17:28;;;;;;;5.70;3.17;;;;;;;14.66;100.00;100238.78;4977596;28;20445;-84
2023/08/01 03:19:53;;;;;;;5.93;3.20;;;;;;;13.91;100.00;100064.38;4968978;28;20218;-83
2023/08/01 03:22:19;;;;;;;5.03;3.00;;;;;;;13.48;100.00;100011.78;4970310;28;20198;-83
2023/08/01 03:24:44;;;;;;;6.43;2.80;;;;;;;13.65;100.00;100073.81;4970898;28;20248;-79
2023/08/01 03:27:10;;;;;;;6.63;2.60;;;;;;;13.00;100.00;100012.06;4972796;28;20659;-85
2023/08/01 03:29:35;;;;;;;5.53;3.33;;;;;;;13.28;100.00;100019.44;4969038;28;20213;-80
2023/08/01 03:32:01;;;;;;;5.73;3.20;;;;;;;13.88;100.00;100117.94;4969881;28;20193;-81
2023/08/01 03:34:26;;;;;;;6.37;3.30;;;;;;;14.34;100.00;100191.69;4977591;28;20229;-81
2023/08/01 03:36:52;;;;;;;5.80;2.70;;;;;;;13.91;100.00;100120.97;4987368;28;20346;-77
2023/08/01 03:39:18;;;;;;;8.00;3.20;;;;;;;13.27;100.00;100077.03;4971030;28;20217;-79
2023/08/01 03:41:43;;;;;;;5.80;2.83;;;;;;;12.80;100.00;99950.50;4975092;28;20198;-77
2023/08/01 03:44:08;;;;;;;6.03;3.00;;;;;;;12.60;100.00;99924.75;4974996;28;20196;-85
2023/08/01 03:46:34;;;;;;;6.77;3.17;;;;;;;15.24;100.00;100395.44;4975250;28;20639;-84
2023/08/01 03:48:59;;;;;;;6.82;2.95;;;;;;;14.84;100.00;100285.53;4972302;28;20492;-83
2023/08/01 03:51:25;;;;;;;5.97;2.70;;;;;;;13.50;100.00;100113.91;4976111;28;20206;-82
2023/08/01 03:53:50;;;;;;;7.40;3.43;;;;;;;13.20;100.00;100055.59;4979915;28;20214;-82
2023/08/01 03:56:16;;;;;;;5.63;2.93;;;;;;;13.89;100.00;100170.81;4975308;28;20192;-84
2023/08/01 03:58:41;;;;;;;12.50;3.27;;;;;;;13.33;100.00;100084.97;4973594;28;20316;-84
2023/08/01 04:01:06;;;;;;;6.50;3.50;;;;;;;13.11;100.00;100048.91;4971784;28;20682;-85
2023/08/01 04:03:32;;;;;;;6.70;2.90;;;;;;;12.05;100.00;99857.88;4970892;28;20546;-82
2023/08/01 04:05:58;;;;;;;7.30;3.27;;;;;;;12.60;100.00;100002.78;4974250;28;20190;-85
2023/08/01 04:08:23;;;;;;;4.83;2.70;;;;;;;13.41;100.00;100112.63;4972662;28;20273;-83
2023/08/01 04:10:50;;;;;;;5.90;3.23;;;;;;;15.25;100.00;100380.88;4974783;28;20190;-85
2023/08/01 04:13:15;;;;;;;8.13;3.10;;;;;;;13.22;100.00;100117.28;4972917;28;20185;-84
2023/08/01 04:15:41;;;;;;;7.57;2.60;;;;;;;14.68;100.00;100382.44;4971687;28;20964;-85
2023/08/01 04:18:06;;;;;;;7.80;3.20;;;;;;;15.22;100.00;100405.69;4972035;28;20185;-83
2023/08/01 04:20:32;;;;;;;6.27;2.60;;;;;;;13.60;100.00;100105.22;4971317;28;20207;-84
2023/08/01 04:22:57;;;;;;;5.90;2.73;;;;;;;12.48;100.00;99955.41;4974036;28;20237;-87
2023/08/01 04:25:24;;;;;;;8.30;3.03;;;;;;;12.84;100.00;100041.31;4972460;28;20872;-84
2023/08/01 04:27:50;;;;;;;7.47;3.30;;;;;;;12.77;100.00;99975.19;4974591;28;20289;-84
2023/08/01 04:30:15;;;;;;;5.77;2.80;;;;;;;13.22;100.00;100010.41;4973586;28;20475;-86
2023/08/01 04:32:41;;;;;;;7.00;3.30;;;;;;;12.74;100.00;99936.13;4972350;28;20190;-85
2023/08/01 04:35:07;;;;;;;7.53;3.00;;;;;;;12.40;100.00;99908.16;4974113;28;20210;-88
2023/08/01 04:37:32;;;;;;;9.00;3.30;;;;;;;12.85;100.00;99967.59;4977095;28;20607;-83
2023/08/01 04:39:58;;;;;;;6.50;3.00;;;;;;;12.95;100.00;100018.13;4968948;28;20550;-85
2023/08/01 04:42:23;;;;;;;6.73;3.10;;;;;;;14.59;100.00;100265.09;4975131;28;20382;-84
2023/08/01 04:44:49;;;;;;;8.77;3.57;;;;;;;13.59;100.00;100106.28;4971720;28;20256;-83
2023/08/01 04:47:14;;;;;;;5.93;2.77;;;;;;;13.47;100.00;100037.06;4973658;28;20241;-85
2023/08/01 04:49:40;;;;;;;6.10;2.93;;;;;;;12.88;100.00;99932.13;4969679;28;20213;-83
2023/08/01 04:52:06;;;;;;;7.77;3.10;;;;;;;13.50;100.00;100076.19;4970888;28;20296;-86
2023/08/01 04:54:31;;;;;;;6.13;3.20;;;;;;;14.39;100.00;100192.63;4975834;28;20198;-82
2023/08/01 04:56:56;;;;;;;6.70;3.23;;;;;;;12.50;100.00;99864.53;4974896;28;20426;-84
2023/08/01 04:59:22;;;;;;;7.57;2.70;;;;;;;13.32;100.00;100040.25;4974322;28;20704;-84
2023/08/01 05:01:47;;;;;;;4.17;2.43;;;;;;;13.13;100.00;99971.41;4979771;28;20549;-84
2023/08/01 05:04:13;;;;;;;3.80;1.60;;;;;;;13.99;100.00;100109.00;4976084;28;20174;-85
2023/08/01 05:06:40;;;;;;;4.27;2.40;;;;;;;12.72;100.00;99905.94;4977835;28;20179;-85
2023/08/01 05:09:06;;;;;;;3.23;2.07;;;;;;;13.92;100.00;100124.53;4973717;28;20202;-83
2023/08/01 05:11:32;;;;;;;5.33;2.27;;;;;;;14.99;100.00;100252.63;4976290;28;21413;-83
2023/08/01 05:13:57;;;;;;;3.03;1.73;;;;;;;15.31;100.00;100318.59;4970537;28;20475;-83
2023/08/01 05:16:23;;;;;;;4.17;2.17;;;;;;;14.63;100.00;100179.06;4976047;28;20186;-82
2023/08/01 05:18:48;;;;;;;5.33;2.03;;;;;;;13.96;100.00;100152.63;4972522;28;20209;-85
2023/08/01 05:21:14;;;;;;;6.80;2.67;;;;;;;14.00;100.00;100160.03;4972867;28;20202;-84
2023/08/01 05:23:39;;;;;;;4.70;1.80;;;;;;;13.82;100.00;100105.44;4977926;28;20178;-81
2023/08/01 05:26:05;;;;;;;3.63;1.90;;;;;;;13.24;100.00;100002.06;4974446;28;20189;-84
2023/08/01 05:28:30;;;;;;;4.33;2.20;;;;;;;13.00;100.00;99888.22;4973950;28;20206;-81
2023/08/01 05:30:55;;;;;;;3.93;1.70;;;;;;;14.00;100.00;100113.34;4972447;28;20186;-83
2023/08/01 05:33:21;;;;;;;5.17;1.80;;;;;;;13.89;100.00;100119.59;4967868;28;20698;-87
2023/08/01 05:35:48;;;;;;;4.80;1.80;;;;;;;13.32;100.00;99994.47;4970761;28;20220;-86
2023/08/01 05:38:14;;;;;;;4.27;1.80;;;;;;;13.87;100.00;100071.31;4966025;28;20225;-83
2023/08/01 05:40:39;;;;;;;7.23;2.00;;;;;;;12.71;100.00;99901.59;4969293;28;20477;-85
2023/08/01 05:43:05;;;;;;;6.60;1.83;;;;;;;13.29;100.00;99965.31;4970898;28;20194;-83
2023/08/01 05:45:30;;;;;;;4.23;1.70;;;;;;;13.79;100.00;100032.06;4970384;28;20220;-84
2023/08/01 05:47:56;;;;;;;4.93;2.17;;;;;;;13.03;100.00;99974.72;4972110;28;20265;-85
2023/08/01 05:50:21;;;;;;;3.73;1.60;;;;;;;14.10;100.00;100097.38;4969615;28;20320;-86
2023/08/01 05:52:47;;;;;;;6.20;2.23;;;;;;;14.32;100.00;100132.59;4970726;28;20678;-84
2023/08/01 05:55:13;;;;;;;3.57;1.30;;;;;;;14.29;100.00;100118.75;4964883;28;20564;-81
2023/08/01 05:57:38;;;;;;;4.40;1.50;;;;;;;13.29;100.00;99938.41;4971135;28;20710;-86
2023/08/01 06:00:04;;;;;;;5.20;1.67;;;;;;;13.60;100.00;99955.16;4970126;28;20213;-86
2023/08/01 06:02:29;;;;;;;5.13;1.47;;;;;;;13.63;100.00;99999.69;4970560;28;20735;-81
2023/08/01 06:04:55;;;;;;;3.43;1.80;;;;;;;14.39;100.00;100089.28;4967980;28;20441;-86
2023/08/01 06:07:22;;;;;;;7.20;2.30;;;;;;;14.19;100.00;100035.78;4971126;28;20248;-85
2023/08/01 06:09:50;;;;;;;4.07;1.43;;;;;;;14.54;100.00;100096.88;4970716;28;20202;-83
2023/08/01 06:12:17;;;;;;;5.93;1.93;;;;;;;15.86;100.00;100236.00;4971218;28;20417;-84
2023/08/01 06:14:42;;;;;;;5.87;1.97;;;;;;;14.84;100.00;100134.34;4972736;28;20504;-86
2023/08/01 06:17:08;;;;;;;5.53;1.40;;;;;;;14.22;100.00;100065.78;4970863;28;20468;-82
2023/08/01 06:20:04;;;;;;;7.53;1.97;;;;;;;16.02;100.00;100364.16;4982392;28;20562;-80
2023/08/01 06:22:30;;;;;;;6.10;2.13;;;;;;;13.17;100.00;99870.28;4972272;28;20883;-85
2023/08/01 06:24:55;;;;;;;8.00;2.43;;;;;;;14.20;100.00;100076.00;4968949;28;20437;-83
2023/08/01 06:27:20;;;;;;;5.40;1.87;;;;;;;13.94;100.00;100066.63;4968239;28;20996;-83
2023/08/01 06:29:46;;;;;;;6.73;2.53;;;;;;;13.12;100.00;99899.78;4968570;28;20701;-86
2023/08/01 06:32:11;;;;;;;9.20;2.93;;;;;;;14.39;100.00;100171.03;4972200;28;20671;-85
2023/08/01 06:34:37;;;;;;;6.97;2.10;;;;;;;14.39;100.00;100154.84;4972281;28;20681;-81
2023/08/01 06:37:03;;;;;;;6.20;2.10;;;;;;;14.03;100.00;100115.59;4971817;28;20182;-83
2023/08/01 06:39:29;;;;;;;3.90;1.40;;;;;;;15.06;100.00;100185.78;4968531;28;20834;-85
2023/08/01 06:41:55;;;;;;;5.60;1.93;;;;;;;14.70;100.00;100150.06;4969790;28;20454;-84
2023/08/01 06:44:21;;;;;;;7.03;1.73;;;;;;;13.99;100.00;100003.88;4975590;28;20452;-84
2023/08/01 06:46:46;;;;;;;3.93;1.60;;;;;;;15.27;100.00;100227.44;4970155;28;20190;-85
2023/08/01 06:49:12;;;;;;;5.27;1.70;;;;;;;15.68;100.00;100257.88;4967566;28;20217;-86
2023/08/01 06:51:37;;;;;;;3.00;1.53;;;;;;;16.33;100.00;100353.81;4968965;28;20198;-84
2023/08/01 06:54:03;;;;;;;5.23;1.90;;;;;;;14.38;100.00;100066.88;4966125;28;20203;-84
2023/08/01 06:56:28;;;;;;;3.80;1.30;;;;;;;14.41;100.00;100041.31;4966412;28;20600;-87
2023/08/01 06:58:54;;;;;;;3.77;1.57;;;;;;;13.98;100.00;99956.41;4968217;28;20256;-87
2023/08/01 07:01:19;;;;;;;3.17;1.80;;;;;;;13.96;100.00;99986.28;4973941;28;20641;-88
2023/08/01 07:03:45;;;;;;;3.47;1.70;;;;;;;13.87;100.00;100028.19;4971761;28;20186;-84
2023/08/01 07:06:11;;;;;;;6.93;1.83;;;;;;;13.91;100.00;99988.06;4962714;28;20197;-86
2023/08/01 07:08:36;;;;;;;4.87;1.77;;;;;;;13.99;100.00;100011.94;4967076;28;20465;-85
2023/08/01 07:11:02;;;;;;;3.03;1.30;;;;;;;14.11;100.00;100063.94;4966706;28;20978;-87
2023/08/01 07:13:28;;;;;;;3.47;2.17;;;;;;;14.65;100.00;100166.97;4969790;28;20186;-88
2023/08/01 07:15:53;;;;;;;2.73;1.37;;;;;;;14.72;100.00;100147.09;4970423;28;20182;-85
2023/08/01 07:18:19;;;;;;;5.57;1.70;;;;;;;14.00;100.00;100065.66;4970667;28;20205;-85
2023/08/01 07:20:44;;;;;;;3.30;1.67;;;;;;;13.55;100.00;100007.06;4971780;28;20218;-88
2023/08/01 07:23:10;;;;;;;3.33;1.57;;;;;;;14.89;100.00;100135.25;4969879;28;20681;-86
2023/08/01 07:25:35;;;;;;;5.70;1.53;;;;;;;14.09;100.00;100062.53;4969791;28;20556;-86
2023/08/01 07:28:02;;;;;;;3.40;1.63;;;;;;;13.98;100.00;100026.50;4970125;28;20213;-87
2023/08/01 07:30:28;;;;;;;4.63;1.67;;;;;;;12.86;100.00;99841.91;4970731;28;20202;-87
2023/08/01 07:32:53;;;;;;;3.87;1.30;;;;;;;14.35;100.00;100136.66;4968888;28;20442;-86
2023/08/01 07:35:18;;;;;;;4.10;1.30;;;;;;;13.86;100.00;100090.44;4970314;28;20912;-84
2023/08/01 07:37:44;;;;;;;2.87;1.30;;;;;;;13.64;100.00;100030.94;4966876;28;20216;-87
2023/08/01 07:40:10;;;;;;;4.77;1.73;;;;;;;13.83;100.00;100034.28;4972681;28;20198;-88
2023/08/01 07:42:35;;;;;;;3.70;1.53;;;;;;;13.53;100.00;99947.22;4970592;28;20193;-86
2023/08/01 07:45:01;;;;;;;2.47;1.40;;;;;;;12.82;100.00;99836.19;4969219;28;20437;-85
2023/08/01 07:47:26;;;;;;;3.30;1.20;;;;;;;12.93;100.00;99844.47;4970866;28;20277;-87
2023/08/01 07:49:52;;;;;;;2.70;1.00;;;;;;;12.92;100.00;99877.81;4969173;28;20237;-85
2023/08/01 07:52:17;;;;;;;2.10;1.00;;;;;;;14.29;100.00;100125.00;4971109;28;20200;-87
2023/08/01 07:54:43;;;;;;;2.80;1.10;;;;;;;13.61;100.00;100036.81;4969663;28;20217;-86
2023/08/01 07:57:08;;;;;;;2.73;1.00;;;;;;;12.87;100.00;99851.59;4973765;28;20679;-84
2023/08/01 07:59:34;;;;;;;2.10;1.27;;;;;;;14.23;100.00;100101.66;4970035;28;20206;-86
2023/08/01 08:02:00;;;;;;;2.37;1.30;;;;;;;14.28;100.00;100066.69;4971296;28;20693;-85
2023/08/01 08:04:25;;;;;;;2.40;0.90;;;;;;;14.20;100.00;100065.22;4972123;28;20189;-84
2023/08/01 08:06:52;;;;;;;4.50;1.80;;;;;;;13.54;100.00;99857.25;4969287;28;20256;-85
2023/08/01 08:09:17;;;;;;;3.47;1.00;;;;;;;16.48;100.00;100321.53;4971013;28;20210;-88
2023/08/01 08:11:42;;;;;;;2.63;1.43;;;;;;;15.51;100.00;100164.06;4974594;28;20703;-86
2023/08/01 08:14:08;;;;;;;2.43;1.13;;;;;;;13.84;100.00;99946.97;4973015;28;20206;-86
2023/08/01 08:16:34;;;;;;;2.47;1.10;;;;;;;14.37;100.00;100010.47;4974941;28;20565;-85
2023/08/01 08:18:59;;;;;;;2.43;1.20;;;;;;;13.76;100.00;99889.69;4970318;28;20249;-85
2023/08/01 08:21:25;;;;;;;3.67;0.97;;;;;;;14.06;100.00;99958.72;4973354;28;20197;-85
2023/08/01 08:23:50;;;;;;;2.17;0.90;;;;;;;14.88;100.00;100084.22;4972702;28;20193;-86
2023/08/01 08:26:16;;;;;;;2.07;0.90;;;;;;;14.43;100.00;99961.72;4974892;28;20658;-85
2023/08/01 08:28:42;;;;;;;4.43;1.17;;;;;;;15.95;100.00;100274.25;4972148;28;20872;-88
2023/08/01 08:31:08;;;;;;;2.33;0.90;;;;;;;14.68;100.00;100077.41;4975308;28;20180;-87
2023/08/01 08:33:33;;;;;;;4.10;1.27;;;;;;;15.28;100.00;100173.19;4972237;28;20438;-87
2023/08/01 08:35:59;;;;;;;3.70;1.07;;;;;;;14.74;100.00;100069.41;4970485;28;20197;-86
2023/08/01 08:38:24;;;;;;;3.87;1.00;;;;;;;14.86;100.00;100049.34;4975015;28;20186;-87
2023/08/01 08:41:07;;;;;;;4.67;1.23;;;;;;;16.26;100.00;100297.16;4979649;28;20183;-87
2023/08/01 08:43:34;;;;;;;3.17;0.93;;;;;;;15.08;100.00;100135.03;4975600;28;20484;-85
2023/08/01 08:46:01;;;;;;;2.80;0.80;;;;;;;14.67;100.00;100088.47;4975684;28;20683;-85
2023/08/01 08:48:28;;;;;;;3.80;1.20;;;;;;;14.67;100.00;100088.47;4975743;28;20661;-84
2023/08/01 08:50:56;;;;;;;2.20;0.90;;;;;;;14.27;100.00;100015.69;4974253;28;20448;-85
2023/08/01 08:53:22;;;;;;;2.53;1.07;;;;;;;14.38;100.00;100018.31;4972231;28;20941;-84
2023/08/01 08:55:48;;;;;;;5.20;1.00;;;;;;;13.89;100.00;99947.91;4973455;28;20472;-86
2023/08/01 08:58:15;;;;;;;4.20;1.20;;;;;;;14.52;100.00;100007.22;4972013;28;20454;-83
2023/08/01 09:00:41;;;;;;;3.63;1.00;;;;;;;16.16;100.00;100305.94;4972713;28;20186;-86
2023/08/01 09:03:07;;;;;;;3.57;1.40;;;;;;;13.66;100.00;99902.19;4972128;28;20452;-87
2023/08/01 09:06:12;;;;;;;4.57;1.17;;;;;;;16.52;100.00;100262.28;4972355;28;20444;-86
2023/08/01 09:08:39;;;;;;;2.67;0.90;;;;;;;14.78;100.00;100039.00;4966711;28;20463;-90
2023/08/01 09:11:05;;;;;;;2.40;1.00;;;;;;;13.97;100.00;99914.31;4972408;28;20487;-88
2023/08/01 09:13:31;;;;;;;2.57;0.90;;;;;;;14.21;100.00;99909.59;4972448;28;20434;-88
2023/08/01 09:15:56;;;;;;;3.60;1.17;;;;;;;14.66;100.00;99984.25;4971585;28;20197;-88
2023/08/01 09:18:22;;;;;;;2.03;1.00;;;;;;;14.13;100.00;99910.81;4971091;28;20440;-85
2023/08/01 09:20:49;;;;;;;2.77;1.00;;;;;;;13.83;100.00;99806.00;4973089;28;20190;-84
2023/08/01 09:23:16;;;;;;;2.70;1.07;;;;;;;16.55;100.00;100240.13;4972019;28;20194;-86
2023/08/01 09:25:43;;;;;;;3.70;0.90;;;;;;;14.53;100.00;100007.00;4971932;28;21355;-86
2023/08/01 09:28:17;;;;;;;4.77;1.23;;;;;;;14.12;100.00;99905.69;4972825;28;21421;-85
2023/08/01 09:31:00;;;;;;;4.13;0.90;;;;;;;14.76;100.00;100041.09;4972313;28;20445;-86
2023/08/01 09:33:26;;;;;;;2.87;1.10;;;;;;;14.61;100.00;100014.69;4973482;28;20934;-87
2023/08/01 09:35:52;;;;;;;4.10;0.90;;;;;;;15.31;100.00;100101.63;4975649;28;20483;-88
2023/08/01 09:38:17;;;;;;;3.23;1.13;;;;;;;16.40;100.00;100273.22;4972301;28;20193;-87
2023/08/01 09:40:44;;;;;;;4.87;1.13;;;;;;;14.02;100.00;99935.97;4974999;28;20442;-90
2023/08/01 09:43:13;;;;;;;4.20;0.93;;;;;;;15.64;100.00;100199.94;4978905;28;20532;-86
2023/08/01 09:45:52;;;;;;;2.80;0.97;;;;;;;15.88;100.00;100239.28;4977325;28;20460;-86
2023/08/01 09:48:25;;;;;;;2.07;0.90;;;;;;;14.18;100.00;99964.03;4969258;28;20619;-79
2023/08/01 09:50:51;;;;;;;1.83;0.70;;;;;;;13.87;100.00;99941.09;4970792;28;20503;-86
2023/08/01 09:53:16;;;;;;;3.90;0.97;;;;;;;14.32;100.00;100022.00;4968460;28;22315;-87
2023/08/01 09:55:45;;;;;;;2.17;0.80;;;;;;;14.58;100.00;100041.31;4965384;28;20205;-88
2023/08/01 09:58:13;;;;;;;1.73;0.90;;;;;;;15.50;100.00;100150.78;4969297;28;20190;-90
2023/08/01 10:00:39;;;;;;;1.70;0.83;;;;;;;13.87;100.00;99881.81;4977366;28;20901;-87
2023/08/01 10:03:05;;;;;;;2.37;0.80;;;;;;;14.91;100.00;100016.22;4971036;28;20715;-87
2023/08/01 10:05:34;;;;;;;4.90;1.30;;;;;;;13.72;100.00;99867.00;4967249;28;20682;-87
2023/08/01 10:08:00;;;;;;;3.43;1.00;;;;;;;16.22;100.00;100247.28;4964636;28;20444;-85
2023/08/01 10:10:27;;;;;;;2.93;1.00;;;;;;;16.32;100.00;100288.03;4979754;28;20624;-87
2023/08/01 10:12:54;;;;;;;2.57;0.93;;;;;;;13.29;100.00;99824.47;4966932;28;20583;-83
2023/08/01 10:15:20;;;;;;;1.80;1.00;;;;;;;13.48;100.00;99858.22;4968933;28;20484;-84
2023/08/01 10:17:45;;;;;;;2.50;0.90;;;;;;;15.98;100.00;100312.44;4966262;28;20445;-86
2023/08/01 10:20:14;;;;;;;2.40;0.80;;;;;;;15.37;100.00;100247.34;4965690;28;20674;-87
2023/08/01 10:22:40;;;;;;;2.97;1.20;;;;;;;14.69;100.00;100132.22;4973632;28;20190;-86
2023/08/01 10:25:09;;;;;;;4.67;1.37;;;;;;;12.96;100.00;99822.44;4969300;28;20440;-84
2023/08/01 10:27:35;;;;;;;5.53;1.30;;;;;;;14.51;100.00;100084.63;4966075;28;20437;-84
2023/08/01 10:30:03;;;;;;;2.57;0.80;;;;;;;15.08;100.00;100116.94;4972894;28;20469;-85
2023/08/01 10:32:33;;;;;;;4.33;1.00;;;;;;;16.30;100.00;100305.59;4974016;28;20456;-83
2023/08/01 10:34:59;;;;;;;1.90;0.77;;;;;;;13.47;100.00;99850.38;4980594;28;20506;-81
2023/08/01 10:37:25;;;;;;;4.00;1.03;;;;;;;16.30;100.00;100303.69;4970527;28;20824;-86
2023/08/01 10:39:58;;;;;;;2.33;0.90;;;;;;;16.50;100.00;100314.78;4970396;28;20302;-84
2023/08/01 10:42:24;;;;;;;4.30;1.47;;;;;;;13.88;100.00;99880.72;4976326;28;20441;-83
2023/08/01 10:44:50;;;;;;;3.10;1.27;;;;;;;15.70;100.00;100210.59;4974409;28;20948;-85
2023/08/01 10:47:26;;;;;;;3.80;1.23;;;;;;;16.24;100.00;100320.94;4973705;28;20441;-81
2023/08/01 10:49:52;;;;;;;3.20;1.00;;;;;;;13.49;100.00;99849.09;4971686;28;20574;-79
2023/08/01 10:52:19;;;;;;;1.90;0.80;;;;;;;14.39;100.00;100013.75;4981566;28;20445;-86
2023/08/01 10:54:46;;;;;;;4.53;1.23;;;;;;;14.31;100.00;99971.78;4980006;28;20209;-79
2023/08/01 10:57:18;;;;;;;3.10;1.10;;;;;;;14.32;100.00;99986.09;4973472;28;20434;-80
2023/08/01 10:59:44;;;;;;;5.03;1.43;;;;;;;13.54;100.00;99853.75;4969098;28;20912;-88
2023/08/01 11:02:10;;;;;;;7.30;1.27;;;;;;;13.91;100.00;99975.41;4972741;28;20440;-86
2023/08/01 11:04:36;;;;;;;2.80;1.17;;;;;;;14.45;100.00;100040.56;4973171;28;20804;-83
2023/08/01 11:07:01;;;;;;;2.60;1.07;;;;;;;14.94;100.00;100090.53;4970442;28;20189;-81
2023/08/01 11:09:28;;;;;;;3.30;1.00;;;;;;;14.67;100.00;99972.41;4971589;28;20306;-86
2023/08/01 11:11:56;;;;;;;3.30;1.20;;;;;;;14.83;100.00;100022.84;4972349;28;20214;-84
2023/08/01 11:14:23;;;;;;;3.07;1.20;;;;;;;15.27;100.00;100027.53;4971742;28;20871;-83